Time;durP1;ratioP1;P1;durP2;ratioP2;P2;SDS_P1;SDS_P2;PMS_P1;PMS_P2;Temp;Humidity;BMP_temperature;BMP_pressure;BME280_temperature;BME280_humidity;BME280_pressure;Samples;Min_cycle;Max_cycle;Signal;HPM_P1;HPM_P2
2023/08/12 00:00:10;;;;;;;4.97;2.60;;;;;;;;;;5056963;28;20252;-65
2023/08/12 00:02:39;;;;;;;2.80;2.40;;;;;;;;;;5057407;28;20256;-64
2023/08/12 00:05:07;;;;;;;4.35;2.90;;;;;;;;;;5056468;28;20199;-65
2023/08/12 00:07:34;;;;;;;4.30;3.25;;;;;;;;;;5054979;28;20207;-64
2023/08/12 00:10:03;;;;;;;3.85;2.65;;;;;;;;;;5051910;28;20211;-64
2023/08/12 00:12:30;;;;;;;4.25;3.33;;;;;;;;;;5056257;28;20246;-65
2023/08/12 00:14:57;;;;;;;4.22;2.80;;;;;;;;;;5051404;28;20218;-64
2023/08/12 00:17:24;;;;;;;3.53;2.92;;;;;;;;;;5052040;28;20203;-74
2023/08/12 00:19:53;;;;;;;2.92;2.60;;;;;;;;;;5051482;28;20207;-70
2023/08/12 00:22:20;;;;;;;3.55;2.40;;;;;;;;;;5051887;28;20234;-71
2023/08/12 00:24:47;;;;;;;3.00;2.70;;;;;;;;;;5051480;28;20207;-70
2023/08/12 00:27:14;;;;;;;3.63;2.50;;;;;;;;;;5051170;28;20217;-70
2023/08/12 00:29:41;;;;;;;2.33;1.95;;;;;;;;;;5049205;28;20211;-70
2023/08/12 00:32:10;;;;;;;2.83;2.08;;;;;;;;;;5056700;28;20210;-70
2023/08/12 00:34:37;;;;;;;6.97;2.45;;;;;;;;;;5060179;28;20210;-70
2023/08/12 00:37:06;;;;;;;2.50;2.30;;;;;;;;;;5060936;28;20217;-69
2023/08/12 00:39:33;;;;;;;2.28;2.03;;;;;;;;;;5058938;28;20237;-70
2023/08/12 00:42:00;;;;;;;2.63;2.20;;;;;;;;;;5061194;28;20234;-69
2023/08/12 00:44:27;;;;;;;2.60;1.90;;;;;;;;;;5061603;28;20210;-69
2023/08/12 00:46:55;;;;;;;2.70;1.90;;;;;;;;;;5058252;28;20209;-70
2023/08/12 00:49:22;;;;;;;2.13;1.92;;;;;;;;;;5049314;28;20207;-70
2023/08/12 00:51:51;;;;;;;2.47;1.98;;;;;;;;;;5053655;28;20366;-70
2023/08/12 00:54:20;;;;;;;2.20;2.00;;;;;;;;;;5061348;28;20209;-70
2023/08/12 00:56:47;;;;;;;3.03;2.20;;;;;;;;;;5059978;28;20210;-70
2023/08/12 00:59:15;;;;;;;2.75;2.20;;;;;;;;;;5058465;28;20247;-70
2023/08/12 01:01:42;;;;;;;2.60;2.40;;;;;;;;;;5051285;28;20238;-69
2023/08/12 01:04:09;;;;;;;4.05;2.40;;;;;;;;;;5051305;28;20203;-70
2023/08/12 01:06:37;;;;;;;2.10;2.00;;;;;;;;;;5050795;28;20221;-69
2023/08/12 01:09:05;;;;;;;2.40;2.20;;;;;;;;;;5059916;28;20215;-69
2023/08/12 01:11:37;;;;;;;3.92;2.30;;;;;;;;;;5051021;28;20207;-70
2023/08/12 01:14:06;;;;;;;2.78;2.40;;;;;;;;;;5061657;28;20261;-69
2023/08/12 01:16:36;;;;;;;4.57;2.70;;;;;;;;;;5062540;28;20204;-70
2023/08/12 01:19:03;;;;;;;2.10;2.00;;;;;;;;;;5053478;28;20317;-69
2023/08/12 01:21:31;;;;;;;2.40;2.15;;;;;;;;;;5050054;28;20211;-70
2023/08/12 01:24:00;;;;;;;2.40;2.20;;;;;;;;;;5050982;28;20204;-69
2023/08/12 01:26:27;;;;;;;5.43;2.47;;;;;;;;;;5050763;28;20211;-70
2023/08/12 01:28:54;;;;;;;2.10;2.00;;;;;;;;;;5054779;28;20207;-70
2023/08/12 01:31:25;;;;;;;4.93;2.53;;;;;;;;;;5054484;28;20207;-70
2023/08/12 01:33:56;;;;;;;2.47;2.08;;;;;;;;;;5051993;28;20211;-70
2023/08/12 01:36:26;;;;;;;2.42;2.22;;;;;;;;;;5054633;28;20204;-70
2023/08/12 01:38:55;;;;;;;3.95;2.55;;;;;;;;;;5053702;28;20377;-70
2023/08/12 01:41:24;;;;;;;3.40;2.35;;;;;;;;;;5059631;28;20203;-70
2023/08/12 01:43:52;;;;;;;3.10;2.50;;;;;;;;;;5069239;28;20208;-70
2023/08/12 01:46:19;;;;;;;3.33;2.60;;;;;;;;;;5063258;28;20212;-69
2023/08/12 01:48:46;;;;;;;2.30;2.10;;;;;;;;;;5054566;28;20214;-70
2023/08/12 01:51:13;;;;;;;3.55;2.45;;;;;;;;;;5054252;28;20213;-70
2023/08/12 01:53:40;;;;;;;3.20;2.53;;;;;;;;;;5066648;28;20222;-70
2023/08/12 01:56:07;;;;;;;2.53;2.28;;;;;;;;;;5067303;28;20214;-69
2023/08/12 01:58:36;;;;;;;2.53;2.30;;;;;;;;;;5069616;28;20249;-70
2023/08/12 02:01:03;;;;;;;2.55;2.35;;;;;;;;;;5069133;28;20210;-70
2023/08/12 02:03:30;;;;;;;2.45;2.08;;;;;;;;;;5066408;28;20271;-69
2023/08/12 02:05:57;;;;;;;4.32;2.30;;;;;;;;;;5070661;28;20207;-69
2023/08/12 02:08:25;;;;;;;3.20;2.47;;;;;;;;;;5057480;28;20218;-70
2023/08/12 02:10:52;;;;;;;2.78;2.45;;;;;;;;;;5054464;28;20235;-70
2023/08/12 02:13:19;;;;;;;3.80;2.50;;;;;;;;;;5064930;28;20298;-68
2023/08/12 02:15:47;;;;;;;3.13;2.50;;;;;;;;;;5059929;28;20204;-70
2023/08/12 02:18:14;;;;;;;3.45;2.30;;;;;;;;;;5050256;28;20203;-70
2023/08/12 02:20:42;;;;;;;4.30;2.28;;;;;;;;;;5050604;28;20204;-70
2023/08/12 02:23:09;;;;;;;3.03;2.58;;;;;;;;;;5053623;28;20215;-70
2023/08/12 02:25:36;;;;;;;2.47;2.10;;;;;;;;;;5054301;28;20303;-69
2023/08/12 02:28:03;;;;;;;3.13;2.38;;;;;;;;;;5053220;28;20215;-70
2023/08/12 02:30:31;;;;;;;3.42;2.00;;;;;;;;;;5068311;28;20214;-70
2023/08/12 02:32:59;;;;;;;2.38;2.22;;;;;;;;;;5071718;28;20213;-70
2023/08/12 02:35:26;;;;;;;2.40;2.20;;;;;;;;;;5072444;28;20206;-70
2023/08/12 02:37:53;;;;;;;4.70;2.10;;;;;;;;;;5064452;28;20274;-70
2023/08/12 02:40:21;;;;;;;2.10;2.00;;;;;;;;;;5070864;28;20253;-70
2023/08/12 02:42:48;;;;;;;2.28;2.15;;;;;;;;;;5056169;28;20215;-70
2023/08/12 02:45:15;;;;;;;2.58;2.28;;;;;;;;;;5053351;28;20218;-70
2023/08/12 02:47:42;;;;;;;2.75;2.40;;;;;;;;;;5053171;28;20215;-70
2023/08/12 02:50:11;;;;;;;2.47;2.28;;;;;;;;;;5053431;28;20208;-70
2023/08/12 02:52:38;;;;;;;2.42;2.22;;;;;;;;;;5052951;28;20263;-70
2023/08/12 02:55:06;;;;;;;2.25;2.00;;;;;;;;;;5065031;28;20203;-70
2023/08/12 02:57:33;;;;;;;3.22;2.42;;;;;;;;;;5053017;28;20235;-70
2023/08/12 03:00:00;;;;;;;4.07;2.22;;;;;;;;;;5052924;28;20276;-70
2023/08/12 03:02:27;;;;;;;2.42;2.22;;;;;;;;;;5052858;28;20211;-70
2023/08/12 03:04:55;;;;;;;2.95;2.22;;;;;;;;;;5052962;28;20219;-70
2023/08/12 03:07:23;;;;;;;2.38;2.17;;;;;;;;;;5053347;28;20213;-70
2023/08/12 03:09:50;;;;;;;2.47;2.28;;;;;;;;;;5052620;28;20247;-70
2023/08/12 03:12:18;;;;;;;2.95;2.22;;;;;;;;;;5052855;28;20215;-69
2023/08/12 03:14:45;;;;;;;3.22;2.30;;;;;;;;;;5053718;28;20211;-70
2023/08/12 03:17:12;;;;;;;3.25;2.25;;;;;;;;;;5057034;28;20218;-71
2023/08/12 03:19:39;;;;;;;2.95;2.20;;;;;;;;;;5052088;28;20229;-65
2023/08/12 03:22:06;;;;;;;3.88;2.10;;;;;;;;;;5051919;28;20209;-65
2023/08/12 03:24:35;;;;;;;2.85;2.20;;;;;;;;;;5053055;28;20215;-65
2023/08/12 03:27:02;;;;;;;2.45;2.00;;;;;;;;;;5052723;28;20211;-65
2023/08/12 03:29:29;;;;;;;2.88;2.10;;;;;;;;;;5053790;28;20203;-65
2023/08/12 03:31:56;;;;;;;2.40;2.20;;;;;;;;;;5054997;28;20208;-65
2023/08/12 03:34:23;;;;;;;3.35;2.35;;;;;;;;;;5055306;28;20210;-65
2023/08/12 03:36:50;;;;;;;3.15;2.00;;;;;;;;;;5049760;28;20399;-65
2023/08/12 03:39:18;;;;;;;3.67;2.30;;;;;;;;;;5052632;28;20227;-65
2023/08/12 03:41:46;;;;;;;2.28;2.08;;;;;;;;;;5051762;28;20218;-65
2023/08/12 03:44:13;;;;;;;2.65;2.40;;;;;;;;;;5052002;28;20207;-65
2023/08/12 03:46:40;;;;;;;3.42;2.75;;;;;;;;;;5052495;28;20216;-65
2023/08/12 03:49:08;;;;;;;2.70;2.50;;;;;;;;;;5053569;28;20203;-65
2023/08/12 03:51:35;;;;;;;2.50;2.30;;;;;;;;;;5053495;28;20316;-65
2023/08/12 03:54:02;;;;;;;2.80;2.60;;;;;;;;;;5054430;28;20215;-65
2023/08/12 03:56:29;;;;;;;3.38;2.55;;;;;;;;;;5056355;28;20213;-65
2023/08/12 03:58:58;;;;;;;2.67;2.47;;;;;;;;;;5053453;28;20238;-65
2023/08/12 04:01:25;;;;;;;3.05;2.53;;;;;;;;;;5051118;28;20298;-65
2023/08/12 04:03:53;;;;;;;2.70;2.50;;;;;;;;;;5051484;28;20235;-65
2023/08/12 04:06:20;;;;;;;2.60;2.40;;;;;;;;;;5052128;28;20210;-65
2023/08/12 04:08:47;;;;;;;3.25;2.95;;;;;;;;;;5051809;28;20214;-64
2023/08/12 04:11:14;;;;;;;2.72;2.53;;;;;;;;;;5054147;28;20221;-66
2023/08/12 04:13:41;;;;;;;3.42;2.70;;;;;;;;;;5057871;28;20212;-65
2023/08/12 04:16:10;;;;;;;3.88;3.20;;;;;;;;;;5056936;28;20215;-66
2023/08/12 04:18:37;;;;;;;3.20;2.90;;;;;;;;;;5059489;28;20210;-65
2023/08/12 04:21:04;;;;;;;3.00;2.65;;;;;;;;;;5051965;28;20223;-65
2023/08/12 04:23:32;;;;;;;2.85;2.65;;;;;;;;;;5053110;28;20219;-65
2023/08/12 04:25:59;;;;;;;2.95;2.35;;;;;;;;;;5058665;28;20284;-65
2023/08/12 04:28:26;;;;;;;2.85;2.63;;;;;;;;;;5054381;28;20214;-71
2023/08/12 04:30:53;;;;;;;2.70;2.50;;;;;;;;;;5058260;28;20203;-71
2023/08/12 04:33:22;;;;;;;2.65;2.45;;;;;;;;;;5060310;28;20203;-71
2023/08/12 04:35:49;;;;;;;2.60;2.40;;;;;;;;;;5054211;28;20215;-71
2023/08/12 04:38:16;;;;;;;2.60;2.40;;;;;;;;;;5056618;28;20199;-70
2023/08/12 04:40:44;;;;;;;3.03;2.72;;;;;;;;;;5059376;28;20223;-71
2023/08/12 04:43:11;;;;;;;3.90;2.75;;;;;;;;;;5059421;28;20238;-71
2023/08/12 04:45:39;;;;;;;3.95;2.80;;;;;;;;;;5052985;28;20211;-72
2023/08/12 04:48:06;;;;;;;3.95;3.08;;;;;;;;;;5051213;28;20207;-71
2023/08/12 04:50:35;;;;;;;3.30;3.00;;;;;;;;;;5051349;28;20230;-72
2023/08/12 04:53:02;;;;;;;2.92;2.70;;;;;;;;;;5049636;28;20207;-72
2023/08/12 04:55:29;;;;;;;3.28;2.97;;;;;;;;;;5049752;28;20211;-71
2023/08/12 04:57:56;;;;;;;3.50;2.95;;;;;;;;;;5050443;28;20242;-71
2023/08/12 05:00:24;;;;;;;3.53;3.22;;;;;;;;;;5050735;28;20231;-71
2023/08/12 05:02:51;;;;;;;4.85;4.25;;;;;;;;;;5053039;28;20233;-71
2023/08/12 05:05:18;;;;;;;4.22;3.63;;;;;;;;;;5055182;28;20234;-71
2023/08/12 05:07:48;;;;;;;5.60;5.00;;;;;;;;;;5055359;28;20215;-72
2023/08/12 05:10:15;;;;;;;9.95;6.35;;;;;;;;;;5054964;28;20294;-71
2023/08/12 05:12:43;;;;;;;6.88;5.55;;;;;;;;;;5054584;28;20219;-71
2023/08/12 05:15:11;;;;;;;8.88;6.70;;;;;;;;;;5055039;28;20211;-71
2023/08/12 05:17:38;;;;;;;7.40;5.95;;;;;;;;;;5055196;28;20218;-71
2023/08/12 05:20:05;;;;;;;5.28;4.80;;;;;;;;;;5053944;28;20231;-71
2023/08/12 05:22:33;;;;;;;4.20;3.90;;;;;;;;;;5055157;28;20211;-72
2023/08/12 05:25:01;;;;;;;4.22;3.83;;;;;;;;;;5054363;28;20214;-71
2023/08/12 05:27:28;;;;;;;4.90;4.50;;;;;;;;;;5054780;28;20217;-71
2023/08/12 05:29:55;;;;;;;4.30;3.83;;;;;;;;;;5059704;28;20203;-72
2023/08/12 05:32:22;;;;;;;3.65;3.40;;;;;;;;;;5065363;28;20207;-72
2023/08/12 05:34:51;;;;;;;5.57;4.72;;;;;;;;;;5065480;28;20215;-72
2023/08/12 05:37:18;;;;;;;4.13;3.78;;;;;;;;;;5059928;28;20203;-71
2023/08/12 05:39:46;;;;;;;3.83;3.42;;;;;;;;;;5064156;28;20222;-65
2023/08/12 05:42:14;;;;;;;4.18;3.78;;;;;;;;;;5062252;28;20222;-65
2023/08/12 05:44:42;;;;;;;5.03;3.90;;;;;;;;;;5054552;28;20209;-65
2023/08/12 05:47:09;;;;;;;4.43;4.03;;;;;;;;;;5054628;28;20218;-65
2023/08/12 05:49:36;;;;;;;3.72;3.20;;;;;;;;;;5054367;28;20214;-65
2023/08/12 05:52:04;;;;;;;3.92;3.35;;;;;;;;;;5054069;28;20210;-65
2023/08/12 05:54:31;;;;;;;3.75;3.25;;;;;;;;;;5054298;28;20208;-65
2023/08/12 05:56:58;;;;;;;4.47;3.42;;;;;;;;;;5054481;28;20212;-66
2023/08/12 05:59:27;;;;;;;5.28;4.57;;;;;;;;;;5052777;28;20235;-65
2023/08/12 06:01:54;;;;;;;4.03;3.72;;;;;;;;;;5050335;28;20207;-65
2023/08/12 06:04:21;;;;;;;5.90;5.40;;;;;;;;;;5062548;28;20218;-65
2023/08/12 06:06:48;;;;;;;4.65;4.05;;;;;;;;;;5064255;28;20199;-65
2023/08/12 06:09:15;;;;;;;4.00;3.60;;;;;;;;;;5052465;28;20233;-65
2023/08/12 06:11:42;;;;;;;3.72;3.45;;;;;;;;;;5052827;28;20229;-65
2023/08/12 06:14:09;;;;;;;4.78;3.25;;;;;;;;;;5053004;28;20200;-65
2023/08/12 06:16:38;;;;;;;4.97;4.50;;;;;;;;;;5052452;28;20217;-65
2023/08/12 06:19:05;;;;;;;4.65;4.25;;;;;;;;;;5053195;28;20310;-65
2023/08/12 06:21:32;;;;;;;5.10;4.60;;;;;;;;;;5052354;28;20245;-65
2023/08/12 06:24:00;;;;;;;4.20;3.67;;;;;;;;;;5052703;28;20213;-65
2023/08/12 06:26:27;;;;;;;6.10;4.28;;;;;;;;;;5052832;28;20211;-65
2023/08/12 06:28:54;;;;;;;4.43;3.70;;;;;;;;;;5065249;28;20211;-65
2023/08/12 06:31:21;;;;;;;3.30;3.00;;;;;;;;;;5052475;28;20209;-65
2023/08/12 06:33:50;;;;;;;3.20;3.00;;;;;;;;;;5053912;28;20215;-65
2023/08/12 06:36:17;;;;;;;3.05;2.83;;;;;;;;;;5066554;28;20243;-65
2023/08/12 06:38:44;;;;;;;3.53;3.22;;;;;;;;;;5069711;28;20206;-65
2023/08/12 06:41:11;;;;;;;3.47;3.17;;;;;;;;;;5057123;28;20231;-65
2023/08/12 06:43:38;;;;;;;4.47;2.58;;;;;;;;;;5052000;28;20219;-65
2023/08/12 06:46:05;;;;;;;3.72;3.20;;;;;;;;;;5070071;28;20211;-65
2023/08/12 06:48:32;;;;;;;3.13;2.92;;;;;;;;;;5064828;28;20199;-71
2023/08/12 06:51:06;;;;;;;4.30;3.40;;;;;;;;;;5052218;28;20203;-71
2023/08/12 06:53:33;;;;;;;3.40;2.80;;;;;;;;;;5052344;28;20215;-70
2023/08/12 06:56:01;;;;;;;3.35;2.85;;;;;;;;;;5052217;28;20207;-70
2023/08/12 06:58:28;;;;;;;3.30;3.00;;;;;;;;;;5015452;28;1065374;-71
2023/08/12 07:00:55;;;;;;;3.03;2.83;;;;;;;;;;5067074;28;20237;-70
2023/08/12 07:03:23;;;;;;;3.38;2.90;;;;;;;;;;5053182;28;20211;-70
2023/08/12 07:05:50;;;;;;;3.83;3.35;;;;;;;;;;5049789;28;20207;-70
2023/08/12 07:08:19;;;;;;;3.30;3.00;;;;;;;;;;5064647;28;20209;-69
2023/08/12 07:10:46;;;;;;;3.03;2.78;;;;;;;;;;5049638;28;20208;-70
2023/08/12 07:13:13;;;;;;;4.47;3.08;;;;;;;;;;5072587;28;20218;-71
2023/08/12 07:15:40;;;;;;;3.75;3.45;;;;;;;;;;5067822;28;20269;-70
2023/08/12 07:18:07;;;;;;;3.30;2.80;;;;;;;;;;5052961;28;20203;-70
2023/08/12 07:20:35;;;;;;;3.70;3.35;;;;;;;;;;5053082;28;20227;-71
2023/08/12 07:23:02;;;;;;;3.63;3.00;;;;;;;;;;5052863;28;20213;-70
2023/08/12 07:25:30;;;;;;;2.80;2.60;;;;;;;;;;5056320;28;20235;-70
2023/08/12 07:27:57;;;;;;;4.18;2.88;;;;;;;;;;5052220;28;20215;-70
2023/08/12 07:30:25;;;;;;;4.05;3.40;;;;;;;;;;5054527;28;20207;-71
2023/08/12 07:32:52;;;;;;;3.65;3.28;;;;;;;;;;5052171;28;20221;-70
2023/08/12 07:35:19;;;;;;;3.67;3.30;;;;;;;;;;5051822;28;20220;-71
2023/08/12 07:37:46;;;;;;;3.95;3.13;;;;;;;;;;5052157;28;20221;-71
2023/08/12 07:40:13;;;;;;;2.88;2.63;;;;;;;;;;5052397;28;20212;-71
2023/08/12 07:42:42;;;;;;;3.25;2.95;;;;;;;;;;5052171;28;20205;-70
2023/08/12 07:45:10;;;;;;;4.57;3.53;;;;;;;;;;5052603;28;20210;-70
2023/08/12 07:47:37;;;;;;;3.80;3.50;;;;;;;;;;5052053;28;20218;-70
2023/08/12 07:50:04;;;;;;;3.95;3.53;;;;;;;;;;5052119;28;20229;-70
2023/08/12 07:52:31;;;;;;;4.47;3.75;;;;;;;;;;5051245;28;20203;-70
2023/08/12 07:54:58;;;;;;;4.43;3.45;;;;;;;;;;5051949;28;20218;-70
2023/08/12 07:57:26;;;;;;;3.70;3.30;;;;;;;;;;5051640;28;20218;-70
2023/08/12 07:59:54;;;;;;;3.95;3.63;;;;;;;;;;5052270;28;20207;-70
2023/08/12 08:02:21;;;;;;;3.97;3.55;;;;;;;;;;5051742;28;20242;-70
2023/08/12 08:04:49;;;;;;;4.70;2.90;;;;;;;;;;5051774;28;20278;-70
2023/08/12 08:07:16;;;;;;;4.00;3.50;;;;;;;;;;5051680;28;20306;-70
2023/08/12 08:09:43;;;;;;;3.15;2.85;;;;;;;;;;5049999;28;20195;-70
2023/08/12 08:12:11;;;;;;;4.63;3.17;;;;;;;;;;5052107;28;20271;-70
2023/08/12 08:14:39;;;;;;;6.07;3.17;;;;;;;;;;5051672;28;20228;-70
2023/08/12 08:17:07;;;;;;;3.83;2.88;;;;;;;;;;5052268;28;20207;-70
2023/08/12 08:19:34;;;;;;;5.43;3.38;;;;;;;;;;5051139;28;20207;-68
2023/08/12 08:22:02;;;;;;;3.90;3.50;;;;;;;;;;5052683;28;20230;-69
2023/08/12 08:24:30;;;;;;;3.90;3.33;;;;;;;;;;5050952;28;20221;-70
2023/08/12 08:26:57;;;;;;;3.53;3.22;;;;;;;;;;5052488;28;20211;-70
2023/08/12 08:29:24;;;;;;;6.45;3.90;;;;;;;;;;5054320;28;20221;-72
2023/08/12 08:31:51;;;;;;;5.65;3.60;;;;;;;;;;5057155;28;20258;-69
2023/08/12 08:34:20;;;;;;;8.13;4.00;;;;;;;;;;5058163;28;20218;-70
2023/08/12 08:36:47;;;;;;;6.07;4.38;;;;;;;;;;5050716;28;20209;-70
2023/08/12 08:39:14;;;;;;;6.75;4.47;;;;;;;;;;5051599;28;20207;-69
2023/08/12 08:41:41;;;;;;;3.95;3.30;;;;;;;;;;5052468;28;20222;-70
2023/08/12 08:44:09;;;;;;;4.13;3.40;;;;;;;;;;5053383;28;20207;-70
2023/08/12 08:46:37;;;;;;;4.35;3.25;;;;;;;;;;5053956;28;20213;-69
2023/08/12 08:49:05;;;;;;;5.30;3.30;;;;;;;;;;5058445;28;20207;-69
2023/08/12 08:51:34;;;;;;;3.75;3.30;;;;;;;;;;5058094;28;20207;-70
2023/08/12 08:54:04;;;;;;;4.10;3.28;;;;;;;;;;5059090;28;20211;-70
2023/08/12 08:56:31;;;;;;;3.80;3.38;;;;;;;;;;5059103;28;20234;-70
2023/08/12 08:58:58;;;;;;;3.97;3.20;;;;;;;;;;5059172;28;20245;-70
2023/08/12 09:01:25;;;;;;;3.85;3.08;;;;;;;;;;5050964;28;20288;-68
2023/08/12 09:03:53;;;;;;;3.25;2.90;;;;;;;;;;5050645;28;20216;-70
2023/08/12 09:06:22;;;;;;;4.65;4.10;;;;;;;;;;5051105;28;20203;-70
2023/08/12 09:08:52;;;;;;;4.07;3.60;;;;;;;;;;5051455;28;20207;-70
2023/08/12 09:11:20;;;;;;;4.38;3.53;;;;;;;;;;5048813;28;20234;-71
2023/08/12 09:13:48;;;;;;;5.20;3.88;;;;;;;;;;5049665;28;20241;-71
2023/08/12 09:16:15;;;;;;;3.83;3.35;;;;;;;;;;5048790;28;20207;-70
2023/08/12 09:18:43;;;;;;;3.47;3.17;;;;;;;;;;5050770;28;20219;-70
2023/08/12 09:21:11;;;;;;;4.22;3.58;;;;;;;;;;5055492;28;20268;-71
2023/08/12 09:23:38;;;;;;;3.85;3.22;;;;;;;;;;5054340;28;20217;-71
2023/08/12 09:26:14;;;;;;;3.45;3.15;;;;;;;;;;5057942;28;20561;-70
2023/08/12 09:28:42;;;;;;;7.15;4.28;;;;;;;;;;5051560;28;20260;-68
2023/08/12 09:31:09;;;;;;;4.57;4.18;;;;;;;;;;5051031;28;20233;-70
2023/08/12 09:33:40;;;;;;;6.60;3.53;;;;;;;;;;5050448;28;20203;-70
2023/08/12 09:36:07;;;;;;;4.78;3.70;;;;;;;;;;5050845;28;20221;-70
2023/08/12 09:38:34;;;;;;;5.30;3.60;;;;;;;;;;5050891;28;20211;-68
2023/08/12 09:41:02;;;;;;;4.93;3.30;;;;;;;;;;5055629;28;20229;-71
2023/08/12 09:43:30;;;;;;;8.35;3.90;;;;;;;;;;5059094;28;20562;-70
2023/08/12 09:45:58;;;;;;;7.43;3.65;;;;;;;;;;5051218;28;20243;-70
2023/08/12 09:48:26;;;;;;;3.58;3.28;;;;;;;;;;5052212;28;20211;-71
2023/08/12 09:50:54;;;;;;;3.83;3.30;;;;;;;;;;5053623;28;20214;-69
2023/08/12 09:53:21;;;;;;;4.85;3.35;;;;;;;;;;5052544;28;20237;-70
2023/08/12 09:55:49;;;;;;;4.40;3.17;;;;;;;;;;5054362;28;20199;-70
2023/08/12 09:58:19;;;;;;;4.38;3.25;;;;;;;;;;5056671;28;20243;-70
2023/08/12 10:00:47;;;;;;;4.40;3.58;;;;;;;;;;5066170;28;20203;-70
2023/08/12 10:03:15;;;;;;;4.47;3.65;;;;;;;;;;5066814;28;20238;-70
2023/08/12 10:05:43;;;;;;;4.88;3.35;;;;;;;;;;5067247;28;20210;-70
2023/08/12 10:08:10;;;;;;;4.60;4.20;;;;;;;;;;5056651;28;20234;-71
2023/08/12 10:10:37;;;;;;;4.95;4.10;;;;;;;;;;5056152;28;20221;-70
2023/08/12 10:13:07;;;;;;;4.28;3.80;;;;;;;;;;5059027;28;20203;-71
2023/08/12 10:15:34;;;;;;;4.65;3.70;;;;;;;;;;5054354;28;20207;-70
2023/08/12 10:18:03;;;;;;;4.13;3.53;;;;;;;;;;5054118;28;20218;-69
2023/08/12 10:20:31;;;;;;;3.83;3.53;;;;;;;;;;5054043;28;20217;-63
2023/08/12 10:22:59;;;;;;;6.15;5.15;;;;;;;;;;5067070;28;20361;-63
2023/08/12 10:25:26;;;;;;;5.97;4.40;;;;;;;;;;5064324;28;20301;-64
2023/08/12 10:27:54;;;;;;;5.22;4.32;;;;;;;;;;5068135;28;20211;-63
2023/08/12 10:30:22;;;;;;;4.85;3.83;;;;;;;;;;5068602;28;20214;-63
2023/08/12 10:32:49;;;;;;;6.63;4.20;;;;;;;;;;5069241;28;20323;-64
2023/08/12 10:35:18;;;;;;;5.95;3.72;;;;;;;;;;5069635;28;20211;-64
2023/08/12 10:37:49;;;;;;;5.75;5.03;;;;;;;;;;5066713;28;20274;-64
2023/08/12 10:40:21;;;;;;;6.40;4.28;;;;;;;;;;5064714;28;20269;-63
2023/08/12 10:42:49;;;;;;;5.78;4.30;;;;;;;;;;5062042;28;20317;-63
2023/08/12 10:45:17;;;;;;;5.75;4.55;;;;;;;;;;5069181;28;20210;-64
2023/08/12 10:47:45;;;;;;;5.47;4.47;;;;;;;;;;5069721;28;20305;-63
2023/08/12 10:50:20;;;;;;;5.40;3.90;;;;;;;;;;5058348;28;20217;-64
2023/08/12 10:52:47;;;;;;;5.38;3.97;;;;;;;;;;5052926;28;20203;-64
2023/08/12 10:55:18;;;;;;;3.47;3.17;;;;;;;;;;5053546;28;20217;-63
2023/08/12 10:57:45;;;;;;;4.65;2.90;;;;;;;;;;5059896;28;20231;-63
2023/08/12 11:00:15;;;;;;;2.90;2.15;;;;;;;;;;5057853;28;20194;-65
2023/08/12 11:02:45;;;;;;;1.92;1.73;;;;;;;;;;5049978;28;20216;-63
2023/08/12 11:05:13;;;;;;;2.38;1.50;;;;;;;;;;5053168;28;20265;-63
2023/08/12 11:07:42;;;;;;;1.77;1.67;;;;;;;;;;5053097;28;20218;-63
2023/08/12 11:10:14;;;;;;;1.67;1.52;;;;;;;;;;5053147;28;20238;-63
2023/08/12 11:12:42;;;;;;;2.05;1.75;;;;;;;;;;5052769;28;20210;-63
2023/08/12 11:15:09;;;;;;;1.88;1.77;;;;;;;;;;5060125;28;20241;-64
2023/08/12 11:17:37;;;;;;;2.25;1.70;;;;;;;;;;5070310;28;20206;-63
2023/08/12 11:20:06;;;;;;;1.80;1.50;;;;;;;;;;5069307;28;20203;-62
2023/08/12 11:22:34;;;;;;;1.70;1.60;;;;;;;;;;5053045;28;20215;-63
2023/08/12 11:25:03;;;;;;;2.10;1.75;;;;;;;;;;5053216;28;20212;-64
2023/08/12 11:27:30;;;;;;;3.53;1.50;;;;;;;;;;5051788;28;20231;-63
2023/08/12 11:29:57;;;;;;;1.80;1.50;;;;;;;;;;5052899;28;20211;-63
2023/08/12 11:32:24;;;;;;;2.13;1.60;;;;;;;;;;5050218;28;20210;-63
2023/08/12 11:34:52;;;;;;;2.28;1.83;;;;;;;;;;5072243;28;20211;-63
2023/08/12 11:37:19;;;;;;;2.03;1.75;;;;;;;;;;5060788;28;20217;-63
2023/08/12 11:39:46;;;;;;;5.20;2.10;;;;;;;;;;5052341;28;20298;-64
2023/08/12 11:42:15;;;;;;;2.92;1.77;;;;;;;;;;5052035;28;20221;-62
2023/08/12 11:44:43;;;;;;;2.47;1.92;;;;;;;;;;5053079;28;20216;-62
2023/08/12 11:47:10;;;;;;;2.03;1.67;;;;;;;;;;5052465;28;20211;-63
2023/08/12 11:49:37;;;;;;;1.73;1.60;;;;;;;;;;5052515;28;20207;-63
2023/08/12 11:52:05;;;;;;;1.40;1.30;;;;;;;;;;5052481;28;20199;-63
2023/08/12 11:54:32;;;;;;;2.40;1.63;;;;;;;;;;5053086;28;20206;-63
2023/08/12 11:57:00;;;;;;;2.08;1.77;;;;;;;;;;5052281;28;20217;-63
2023/08/12 11:59:28;;;;;;;2.63;1.63;;;;;;;;;;5053613;28;20234;-63
2023/08/12 12:01:56;;;;;;;2.33;1.55;;;;;;;;;;5053289;28;20230;-64
2023/08/12 12:04:23;;;;;;;2.30;1.60;;;;;;;;;;5057005;28;20207;-62
2023/08/12 12:06:50;;;;;;;3.03;1.60;;;;;;;;;;5051635;28;20207;-62
2023/08/12 12:09:20;;;;;;;1.92;1.67;;;;;;;;;;5054567;28;20234;-64
2023/08/12 12:11:47;;;;;;;1.55;1.45;;;;;;;;;;5058075;28;20222;-63
2023/08/12 12:14:14;;;;;;;1.60;1.50;;;;;;;;;;5053695;28;20207;-63
2023/08/12 12:16:43;;;;;;;2.70;1.50;;;;;;;;;;5053202;28;20210;-64
2023/08/12 12:19:11;;;;;;;2.83;1.75;;;;;;;;;;5053887;28;20214;-62
2023/08/12 12:21:42;;;;;;;2.08;1.70;;;;;;;;;;5055113;28;20243;-64
2023/08/12 12:24:09;;;;;;;3.78;3.35;;;;;;;;;;5052672;28;20207;-63
2023/08/12 12:26:37;;;;;;;2.05;1.60;;;;;;;;;;5057946;28;20251;-62
2023/08/12 12:29:05;;;;;;;1.67;1.58;;;;;;;;;;5052722;28;20207;-63
2023/08/12 12:31:34;;;;;;;3.05;1.73;;;;;;;;;;5051977;28;20215;-63
2023/08/12 12:34:03;;;;;;;1.70;1.60;;;;;;;;;;5055401;28;20211;-63
2023/08/12 12:36:30;;;;;;;3.28;1.50;;;;;;;;;;5055643;28;20211;-63
2023/08/12 12:38:58;;;;;;;2.67;1.70;;;;;;;;;;5058994;28;20217;-63
2023/08/12 12:41:25;;;;;;;1.67;1.58;;;;;;;;;;5052550;28;20215;-61
2023/08/12 12:43:52;;;;;;;4.53;1.73;;;;;;;;;;5056413;28;20231;-63
2023/08/12 12:46:19;;;;;;;1.40;1.30;;;;;;;;;;5059526;28;20219;-63
2023/08/12 12:48:47;;;;;;;1.52;1.42;;;;;;;;;;5051955;28;20214;-63
2023/08/12 12:51:15;;;;;;;1.85;1.75;;;;;;;;;;5049789;28;20211;-64
2023/08/12 12:53:43;;;;;;;2.45;1.55;;;;;;;;;;5056188;28;20209;-63
2023/08/12 12:56:10;;;;;;;1.77;1.50;;;;;;;;;;5058903;28;20220;-64
2023/08/12 12:58:37;;;;;;;1.88;1.60;;;;;;;;;;5052089;28;20245;-62
2023/08/12 13:01:05;;;;;;;2.17;1.80;;;;;;;;;;5058004;28;20215;-62
2023/08/12 13:03:32;;;;;;;4.25;1.65;;;;;;;;;;5050722;28;20227;-62
2023/08/12 13:06:00;;;;;;;4.75;2.00;;;;;;;;;;5054404;28;20218;-63
2023/08/12 13:08:30;;;;;;;2.03;1.80;;;;;;;;;;5059786;28;20241;-62
2023/08/12 13:10:57;;;;;;;2.72;1.80;;;;;;;;;;5051063;28;20273;-63
2023/08/12 13:13:25;;;;;;;1.67;1.48;;;;;;;;;;5053889;28;20202;-62
2023/08/12 13:15:52;;;;;;;2.08;1.70;;;;;;;;;;5056254;28;20283;-62
2023/08/12 13:18:19;;;;;;;2.40;1.67;;;;;;;;;;5058860;28;20217;-63
2023/08/12 13:20:46;;;;;;;2.75;1.88;;;;;;;;;;5058162;28;20206;-62
2023/08/12 13:23:16;;;;;;;1.95;1.67;;;;;;;;;;5060688;28;20234;-62
2023/08/12 13:25:44;;;;;;;1.70;1.60;;;;;;;;;;5063240;28;20206;-62
2023/08/12 13:28:11;;;;;;;1.58;1.48;;;;;;;;;;5056444;28;20214;-63
2023/08/12 13:30:38;;;;;;;3.35;1.95;;;;;;;;;;5053304;28;20213;-62
2023/08/12 13:33:06;;;;;;;2.80;1.60;;;;;;;;;;5056909;28;20203;-63
2023/08/12 13:35:33;;;;;;;2.00;1.80;;;;;;;;;;5055157;28;20214;-62
2023/08/12 13:38:01;;;;;;;2.80;1.80;;;;;;;;;;5054892;28;20211;-63
2023/08/12 13:40:28;;;;;;;2.90;1.77;;;;;;;;;;5056571;28;20207;-62
2023/08/12 13:42:56;;;;;;;3.05;1.60;;;;;;;;;;5062683;28;20246;-63
2023/08/12 13:45:24;;;;;;;3.42;1.90;;;;;;;;;;5064158;28;20204;-62
2023/08/12 13:47:52;;;;;;;1.70;1.60;;;;;;;;;;5064934;28;20211;-63
2023/08/12 13:50:19;;;;;;;2.00;1.80;;;;;;;;;;5054668;28;20203;-69
2023/08/12 13:52:47;;;;;;;2.55;1.80;;;;;;;;;;5054736;28;20214;-68
2023/08/12 13:55:14;;;;;;;2.85;1.85;;;;;;;;;;5059661;28;20206;-69
2023/08/12 13:57:41;;;;;;;2.45;2.17;;;;;;;;;;5064368;28;20235;-68
2023/08/12 14:00:12;;;;;;;2.63;1.90;;;;;;;;;;5065408;28;20204;-70
2023/08/12 14:02:40;;;;;;;5.40;1.92;;;;;;;;;;5064332;28;20228;-69
2023/08/12 14:05:07;;;;;;;2.72;1.80;;;;;;;;;;5064962;28;20239;-68
2023/08/12 14:07:35;;;;;;;2.03;1.80;;;;;;;;;;5064559;28;20207;-68
2023/08/12 14:10:02;;;;;;;3.15;2.30;;;;;;;;;;5065897;28;20211;-68
2023/08/12 14:12:29;;;;;;;3.13;2.35;;;;;;;;;;5061407;28;20211;-68
2023/08/12 14:14:57;;;;;;;3.28;2.30;;;;;;;;;;5054183;28;20217;-68
2023/08/12 14:17:25;;;;;;;6.85;2.40;;;;;;;;;;5053961;28;20210;-68
2023/08/12 14:19:53;;;;;;;4.05;2.20;;;;;;;;;;5054053;28;20211;-68
2023/08/12 14:22:21;;;;;;;3.70;2.20;;;;;;;;;;5053041;28;20276;-69
2023/08/12 14:24:49;;;;;;;4.47;2.30;;;;;;;;;;5066439;28;20282;-68
2023/08/12 14:27:17;;;;;;;3.90;2.60;;;;;;;;;;5051414;28;20208;-68
2023/08/12 14:29:44;;;;;;;2.75;2.08;;;;;;;;;;5051563;28;20209;-67
2023/08/12 14:32:11;;;;;;;2.40;2.20;;;;;;;;;;5066818;28;20211;-67
2023/08/12 14:34:40;;;;;;;3.10;2.20;;;;;;;;;;5058361;28;20213;-68
2023/08/12 14:37:08;;;;;;;2.95;2.30;;;;;;;;;;5053544;28;20215;-68
2023/08/12 14:39:35;;;;;;;2.97;2.25;;;;;;;;;;5061678;28;20207;-67
2023/08/12 14:42:04;;;;;;;2.78;2.38;;;;;;;;;;5053361;28;20203;-69
2023/08/12 14:44:31;;;;;;;3.90;1.98;;;;;;;;;;5052007;28;20243;-68